AirNav   TITAN Aviation Fuels
 
 1547 users online  

E77 San Manuel Airport
San Manuel, Arizona, USA

GOING TO SAN MANUEL?


FAA INFORMATION EFFECTIVE 17 JUNE 2021

Location

FAA Identifier: E77
Lat/Long: 32-38-11.1850N 110-38-50.2356W
32-38.186417N 110-38.837260W
32.6364403,-110.6472877
(estimated)
Elevation: 3271.8 ft. / 997.2 m (surveyed)
Variation: 12E (1985)
From city: 2 miles NW of SAN MANUEL, AZ
Time zone: UTC -7 (year round; does not observe DST)
Zip code: 85631

Airport Operations

Airport use: Open to the public
Control tower: no
ARTCC: ALBUQUERQUE CENTER
FSS: PRESCOTT FLIGHT SERVICE STATION
NOTAMs facility: PRC (NOTAM-D service available)
Attendance: UNATNDD
Wind indicator: lighted
Segmented circle: yes
Lights: ACTVT PAPI RWY 11 & 29; MIRL RWY 11/29 - CTAF.
Beacon: white-green (lighted land airport)
Operates sunset to sunrise.

Airport Communications

CTAF: 122.9
WX AWOS-3PT: 134.125 (520-385-4238)

Nearby radio navigation aids

VOR radial/distance  VOR name  Freq  Var
TUSr011/35.2TUCSON VORTAC116.0012E

 
NDB name  Hdg/Dist  Freq  Var  ID
MARANA053/31.824512EAVQ .- ...- --.-
RYAN029/39.633812ERYN .-. -.-- -.

Airport Services

Fuel available: 100LL
100LL:FUEL 24 HR CREDIT CARD SVC AVBL EXCEPT AMERICAN EXPRESS.
Parking: tiedowns
Airframe service: NONE
Powerplant service: NONE
Bottled oxygen: NONE
Bulk oxygen: NONE

Runway Information

Runway 11/29

Dimensions: 4207 x 75 ft. / 1282 x 23 m
Surface: asphalt, in good condition
Weight bearing capacity: 
Single wheel: 12.0
Runway edge lights: medium intensity
RUNWAY 11  RUNWAY 29
Latitude: 32-38.379762N32-37.993072N
Longitude: 110-39.177553W110-38.496965W
Elevation: 3271.7 ft.3250.3 ft.
Traffic pattern: leftright
Markings: basic, in good conditionbasic, in good condition
Visual slope indicator: 2-light PAPI on left (3.00 degrees glide path)2-light PAPI on right (3.00 degrees glide path)
Runway end identifier lights: nono
Touchdown point: yes, no lightsyes, no lights
Obstructions: 8 ft. brush, 308 ft. from runway, 100 ft. right of centerline, 13:1 slope to clear4 ft. brush, 201 ft. from runway, 100 ft. left of centerline
RWY 29 3-6 FT SCATTERED BRUSH 0-200 FT FM THLD, 90-125 FT LEFT OF CNTRLN; 3-5 FT BRUSH 50-200 FT FM THLD, 50-70 FT RIGHT OF CNTRLN.

Airport Ownership and Management from official FAA records

Ownership: Publicly-owned
Owner: PINAL COUNTY
REDINGTON ROAD
SAN MANUEL, AZ 85631
Phone 520-385-3241
Manager: JIM PETTY
PO BOX 727
FLORENCE, AZ 85132
Phone 520-866-6545
EMERGENCY PHONE 800-420-8689 (SHERIFF'S OFFICE)

Airport Operational Statistics

Aircraft based on the field: 18
Single engine airplanes: 17
Helicopters: 1
    
Aircraft operations: avg 39/day *
84% local general aviation
14% transient general aviation
2% military
* for 12-month period ending 01 April 2020

Additional Remarks

RY 11 HAS 6 FT GULLY 300 FT FM THLD.
RY 29 HAS 6 FT SLOPED DROP OFF 90 FT R OF CNTRLN 165 FT FM THLD EXTENDING OUT TO 325 FT FM THLD.
RY 11/29 SCATTERED 2-4 FT BRUSH IN PRIMARY SURFACE 45-75 FT FROM CNTRLN.
RISING TERRAIN WEST OF AIRPORT., +60 FT.-75 FT. HILL 500 FT. TO 1000 FT. FROM E.O.R., 350 FT - 500 FT RIGHT OF CENTERLINE.
A.W.O.S. FREQ: 134.125, LAND LINE 520-385-4238.
FOR CD CTC ALBUQUERQUE ARTCC AT 505-856-4861.

Instrument Procedures

There are no published instrument procedures at E77.

Some nearby airports with instrument procedures:

KDMA - Davis Monthan Air Force Base (31 nm SW)
KAVQ - Marana Regional Airport (32 nm SW)
KTUS - Tucson International Airport (35 nm SW)
KRYN - Ryan Field Airport (40 nm SW)
P13 - San Carlos Apache Airport (43 nm N)
 
Loc | Ops | Rwys | IFR | FBO | Links
Com | Nav | Svcs | Stats | Notes
Area around E77 (San Manuel Airport)
 
Road maps at: MapQuest Bing Google
 
Aerial photo
WARNING: Photo may not be current or correct
Aerial photo of E77 (San Manuel Airport)
Photo by Chris Olen
Photo taken 24-Jun-2004
shot from around 1,200' AGL

Do you have a better or more recent aerial photo of San Manuel Airport that you would like to share? If so, please send us your photo.

 
Sectional chart

 
Airport distance calculator
Flying to San Manuel Airport? Find the distance to fly.

From to E77

Sunrise and sunset
Times for 17-Jun-2021
 Local
(UTC-7)
 Zulu
(UTC)
Morning civil twilight04:4711:47
Sunrise05:1612:16
Sunset19:3102:31
Evening civil twilight20:0003:00

Current date and time
Zulu (UTC)  17-Jun-2021 18:47:42
Local (UTC-7)  17-Jun-2021 11:47:42
 
METAR
KDMA 
30nm S 
171814Z AUTO 12015KT 10SM CLR 41/00 A2989 RMK AO2 WSHFT 11 SLP064 $
KAVQ 
32nm SW 
171815Z AUTO 03011KT 10SM CLR 44/M03 A2982 RMK AO2 T04361034
KTUS 
34nm SW 
171753Z 13016KT 10SM CLR 42/M01 A2991 RMK AO2 SLP223 T04221006 10422 20272 58005
KMZJ 
35nm W 
171815Z AUTO 09010KT 10SM CLR 43/M00 A2983 RMK AO2
KRYN 
40nm SW 
171745Z 06007G16KT 10SM CLR 42/M02 A2989
KP08 
43nm NW 
171815Z AUTO VRB04G12KT 10SM CLR 42/06 A2979 RMK AO2
TAF
KDMA 
30nm S 
171549Z 1715/1820 11012G18KT 9999 FEW150 QNH2983INS BECMG 1719/1720 11015G25KT 9999 FEW150 520009 QNH2971INS BECMG 1801/1802 11012G18KT 9999 FEW150 QNH2972INS BECMG 1804/1805 VRB06KT 9999 FEW150 QNH2977INS TX45/1721Z TN27/1811Z
KTUS 
34nm SW 
171720Z 1718/1818 11012G20KT P6SM FEW150 FM180100 12009KT P6SM SCT150
NOTAMs
Click for the latest NOTAMs
NOTAMs are issued by the DoD/FAA and will open in a separate window not controlled by AirNav.

 

 
 

FBO, Fuel Providers, and Aircraft Ground Support

  
 Business Name 
 
 Contact 
 
 Services / Description 
 
Fuel Prices
 
Comments
  
San Manuel-Ray Blair Airport 520-866-6545
[email]
Aviation fuel, Aircraft parking (ramp or tiedown), Hangar leasing / sales

More info about San Manuel-Ray Blair Airport
independent
100LL
SS $4.89 
 Updated 11-Jun-2021
 
   write
SS=Self service
Update Fuel Prices
 

Would you like to see your business listed on this page?

 If your business provides an interesting product or service to pilots, flight crews, aircraft, or users of the San Manuel Airport, you should consider listing it here.  To start the listing process, click on the button below
 
Add a business
 

Other Pages about San Manuel Airport

Update a link
 
Copyright © AirNav, LLC. All rights reserved. Privacy Policy  Contact